Terminal Aerodrome Forecast
Issued by NWS Charleston, SC

Home | Current Version | Previous Version | Text Only | Print | Product List | Glossary On
Versions: 1 2 3 4 5 6 7 8 9 10 11 12 13 14 15 16 17 18 19 20 21 22
000
FTUS42 KCHS 242035 AAA
TAFSAV
TAF AMD
KSAV 242035Z 2421/2518 08007KT P6SM VCTS SCT030CB BKN080
     FM242130 15008KT P6SM VCSH FEW040 SCT080
     FM250100 VRB03KT P6SM SCT025
     FM251500 12006KT P6SM SCT030 SCT100=

USA.gov is the U.S. government's official web portal to all federal, state and local government web resources and services.